sensor_id;sensor_type;location;lat;lon;timestamp;temperature;humidity
19567;DHT22;9930;49.240;8.548;2023-09-19T00:11:45;20.30;77.50
19567;DHT22;9930;49.240;8.548;2023-09-19T00:22:09;20.30;77.20
19567;DHT22;9930;49.240;8.548;2023-09-19T05:13:35;19.40;80.80
19567;DHT22;9930;49.240;8.548;2023-09-19T05:16:30;19.40;81.10
19567;DHT22;9930;49.240;8.548;2023-09-19T05:19:30;19.40;81.00
19567;DHT22;9930;49.240;8.548;2023-09-19T05:22:30;19.30;81.30
19567;DHT22;9930;49.240;8.548;2023-09-19T05:25:01;19.30;81.60
19567;DHT22;9930;49.240;8.548;2023-09-19T05:27:30;19.40;81.30
19567;DHT22;9930;49.240;8.548;2023-09-19T05:30:31;19.40;81.40
19567;DHT22;9930;49.240;8.548;2023-09-19T05:36:30;19.40;81.90
19567;DHT22;9930;49.240;8.548;2023-09-19T05:38:59;19.40;82.50
19567;DHT22;9930;49.240;8.548;2023-09-19T05:41:31;19.50;82.10
19567;DHT22;9930;49.240;8.548;2023-09-19T05:44:00;19.60;82.30
19567;DHT22;9930;49.240;8.548;2023-09-19T05:46:30;19.60;82.20
19567;DHT22;9930;49.240;8.548;2023-09-19T05:59:28;19.70;81.30
19567;DHT22;9930;49.240;8.548;2023-09-19T06:02:18;19.70;81.10
19567;DHT22;9930;49.240;8.548;2023-09-19T06:23:23;19.80;80.70
19567;DHT22;9930;49.240;8.548;2023-09-19T06:25:52;19.90;80.70
19567;DHT22;9930;49.240;8.548;2023-09-19T06:28:19;19.90;80.70
19567;DHT22;9930;49.240;8.548;2023-09-19T06:30:49;20.00;80.70
19567;DHT22;9930;49.240;8.548;2023-09-19T06:33:15;20.00;80.60
19567;DHT22;9930;49.240;8.548;2023-09-19T06:35:42;20.10;80.80
19567;DHT22;9930;49.240;8.548;2023-09-19T06:38:10;20.10;80.80
19567;DHT22;9930;49.240;8.548;2023-09-19T06:40:36;20.20;80.90
19567;DHT22;9930;49.240;8.548;2023-09-19T06:43:03;20.20;80.70
19567;DHT22;9930;49.240;8.548;2023-09-19T06:45:32;20.20;80.70
19567;DHT22;9930;49.240;8.548;2023-09-19T06:48:05;20.30;80.70
19567;DHT22;9930;49.240;8.548;2023-09-19T06:50:34;20.30;80.70
19567;DHT22;9930;49.240;8.548;2023-09-19T06:53:06;20.40;80.80
19567;DHT22;9930;49.240;8.548;2023-09-19T06:55:35;20.40;80.80
19567;DHT22;9930;49.240;8.548;2023-09-19T07:01:54;20.50;80.90
19567;DHT22;9930;49.240;8.548;2023-09-19T07:05:11;20.50;80.50
19567;DHT22;9930;49.240;8.548;2023-09-19T07:08:36;20.60;80.50
19567;DHT22;9930;49.240;8.548;2023-09-19T07:20:47;20.80;79.70
19567;DHT22;9930;49.240;8.548;2023-09-19T07:23:48;20.90;79.70
19567;DHT22;9930;49.240;8.548;2023-09-19T07:26:17;21.00;80.00
19567;DHT22;9930;49.240;8.548;2023-09-19T07:28:43;21.00;79.80
19567;DHT22;9930;49.240;8.548;2023-09-19T07:31:25;21.10;79.70
19567;DHT22;9930;49.240;8.548;2023-09-19T07:34:05;21.10;79.70
19567;DHT22;9930;49.240;8.548;2023-09-19T07:37:09;21.20;79.20
19567;DHT22;9930;49.240;8.548;2023-09-19T07:39:42;21.30;78.80
19567;DHT22;9930;49.240;8.548;2023-09-19T07:42:36;21.30;79.00
19567;DHT22;9930;49.240;8.548;2023-09-19T07:45:05;21.30;78.50
19567;DHT22;9930;49.240;8.548;2023-09-19T07:47:33;21.40;79.10
19567;DHT22;9930;49.240;8.548;2023-09-19T07:50:02;21.60;78.90
19567;DHT22;9930;49.240;8.548;2023-09-19T07:52:32;21.60;78.50
19567;DHT22;9930;49.240;8.548;2023-09-19T07:54:59;21.70;78.30
19567;DHT22;9930;49.240;8.548;2023-09-19T07:57:37;21.70;77.90
19567;DHT22;9930;49.240;8.548;2023-09-19T08:00:04;21.80;77.50
19567;DHT22;9930;49.240;8.548;2023-09-19T08:02:35;21.90;77.60
19567;DHT22;9930;49.240;8.548;2023-09-19T08:05:04;22.00;77.00
19567;DHT22;9930;49.240;8.548;2023-09-19T08:07:38;22.00;76.80
19567;DHT22;9930;49.240;8.548;2023-09-19T08:10:06;22.10;76.70
19567;DHT22;9930;49.240;8.548;2023-09-19T08:12:40;22.20;77.00
19567;DHT22;9930;49.240;8.548;2023-09-19T08:15:20;22.20;75.80
19567;DHT22;9930;49.240;8.548;2023-09-19T08:17:46;22.30;75.30
19567;DHT22;9930;49.240;8.548;2023-09-19T08:20:13;22.30;74.90
19567;DHT22;9930;49.240;8.548;2023-09-19T08:22:43;22.40;74.80
19567;DHT22;9930;49.240;8.548;2023-09-19T08:25:22;22.40;74.70
19567;DHT22;9930;49.240;8.548;2023-09-19T08:27:50;22.40;74.60
19567;DHT22;9930;49.240;8.548;2023-09-19T08:30:19;22.50;75.30
19567;DHT22;9930;49.240;8.548;2023-09-19T08:32:57;22.60;74.40
19567;DHT22;9930;49.240;8.548;2023-09-19T08:35:42;22.60;73.60
19567;DHT22;9930;49.240;8.548;2023-09-19T08:38:13;22.70;73.20
19567;DHT22;9930;49.240;8.548;2023-09-19T08:40:40;22.80;73.30
19567;DHT22;9930;49.240;8.548;2023-09-19T08:43:10;22.90;72.80
19567;DHT22;9930;49.240;8.548;2023-09-19T08:45:42;23.00;72.70
19567;DHT22;9930;49.240;8.548;2023-09-19T08:51:16;23.00;71.10
19567;DHT22;9930;49.240;8.548;2023-09-19T08:54:18;23.00;70.80
19567;DHT22;9930;49.240;8.548;2023-09-19T08:56:54;23.10;70.10
19567;DHT22;9930;49.240;8.548;2023-09-19T08:59:24;23.10;70.60
19567;DHT22;9930;49.240;8.548;2023-09-19T09:02:15;23.10;69.80
19567;DHT22;9930;49.240;8.548;2023-09-19T09:04:46;23.10;67.60
19567;DHT22;9930;49.240;8.548;2023-09-19T09:07:16;23.10;69.50
19567;DHT22;9930;49.240;8.548;2023-09-19T09:09:46;23.20;69.20
19567;DHT22;9930;49.240;8.548;2023-09-19T09:12:13;23.20;68.50
19567;DHT22;9930;49.240;8.548;2023-09-19T09:14:54;23.20;68.30
19567;DHT22;9930;49.240;8.548;2023-09-19T09:17:24;23.20;67.40
19567;DHT22;9930;49.240;8.548;2023-09-19T09:45:25;23.40;67.50
19567;DHT22;9930;49.240;8.548;2023-09-19T09:50:52;23.40;66.40
19567;DHT22;9930;49.240;8.548;2023-09-19T09:53:47;23.50;65.90
19567;DHT22;9930;49.240;8.548;2023-09-19T10:03:46;23.40;65.30
19567;DHT22;9930;49.240;8.548;2023-09-19T10:06:20;23.50;66.10
19567;DHT22;9930;49.240;8.548;2023-09-19T10:09:16;23.60;66.30
19567;DHT22;9930;49.240;8.548;2023-09-19T10:14:47;23.90;66.20
19567;DHT22;9930;49.240;8.548;2023-09-19T10:22:29;24.20;64.90
19567;DHT22;9930;49.240;8.548;2023-09-19T10:25:15;24.40;64.40
19567;DHT22;9930;49.240;8.548;2023-09-19T10:28:39;24.40;63.30
19567;DHT22;9930;49.240;8.548;2023-09-19T10:31:17;24.50;63.20
19567;DHT22;9930;49.240;8.548;2023-09-19T10:34:26;24.70;63.40
19567;DHT22;9930;49.240;8.548;2023-09-19T14:05:22;25.70;53.70
19567;DHT22;9930;49.240;8.548;2023-09-19T14:13:19;25.80;54.10
19567;DHT22;9930;49.240;8.548;2023-09-19T14:15:56;25.80;54.10
19567;DHT22;9930;49.240;8.548;2023-09-19T14:18:48;25.90;54.00
19567;DHT22;9930;49.240;8.548;2023-09-19T14:26:47;25.90;52.80
19567;DHT22;9930;49.240;8.548;2023-09-19T14:29:15;26.00;52.80
19567;DHT22;9930;49.240;8.548;2023-09-19T14:31:44;26.00;53.10
19567;DHT22;9930;49.240;8.548;2023-09-19T14:34:49;26.00;53.10
19567;DHT22;9930;49.240;8.548;2023-09-19T14:37:19;26.00;53.20
19567;DHT22;9930;49.240;8.548;2023-09-19T14:42:56;26.00;53.20
19567;DHT22;9930;49.240;8.548;2023-09-19T19:35:22;21.30;61.30
19567;DHT22;9930;49.240;8.548;2023-09-19T21:00:50;20.90;64.20
19567;DHT22;9930;49.240;8.548;2023-09-19T21:03:16;20.90;63.60
19567;DHT22;9930;49.240;8.548;2023-09-19T21:05:42;20.90;63.80
19567;DHT22;9930;49.240;8.548;2023-09-19T21:08:28;21.00;64.10
19567;DHT22;9930;49.240;8.548;2023-09-19T21:14:07;21.00;64.80
19567;DHT22;9930;49.240;8.548;2023-09-19T21:16:36;21.00;64.70
19567;DHT22;9930;49.240;8.548;2023-09-19T21:19:04;21.00;64.50
19567;DHT22;9930;49.240;8.548;2023-09-19T21:21:57;21.00;64.60
19567;DHT22;9930;49.240;8.548;2023-09-19T21:24:36;21.00;65.00
19567;DHT22;9930;49.240;8.548;2023-09-19T21:27:05;21.00;65.40
19567;DHT22;9930;49.240;8.548;2023-09-19T21:29:35;21.00;65.00
19567;DHT22;9930;49.240;8.548;2023-09-19T21:32:04;21.10;65.20
19567;DHT22;9930;49.240;8.548;2023-09-19T21:34:32;21.10;65.10
19567;DHT22;9930;49.240;8.548;2023-09-19T21:37:14;21.10;65.10
19567;DHT22;9930;49.240;8.548;2023-09-19T21:39:41;21.10;65.30
19567;DHT22;9930;49.240;8.548;2023-09-19T21:42:07;21.10;65.00
19567;DHT22;9930;49.240;8.548;2023-09-19T21:44:43;21.10;65.00
19567;DHT22;9930;49.240;8.548;2023-09-19T21:47:13;21.10;65.50
19567;DHT22;9930;49.240;8.548;2023-09-19T21:49:51;21.10;65.10
19567;DHT22;9930;49.240;8.548;2023-09-19T21:52:23;21.10;65.10
19567;DHT22;9930;49.240;8.548;2023-09-19T21:55:08;21.10;65.10
19567;DHT22;9930;49.240;8.548;2023-09-19T21:58:07;21.00;65.70
19567;DHT22;9930;49.240;8.548;2023-09-19T22:00:55;21.00;65.40
19567;DHT22;9930;49.240;8.548;2023-09-19T22:04:22;21.00;65.00
19567;DHT22;9930;49.240;8.548;2023-09-19T22:07:23;21.00;65.50
19567;DHT22;9930;49.240;8.548;2023-09-19T22:10:06;20.90;65.30
19567;DHT22;9930;49.240;8.548;2023-09-19T22:13:11;20.90;65.00
19567;DHT22;9930;49.240;8.548;2023-09-19T22:22:29;20.70;65.40
19567;DHT22;9930;49.240;8.548;2023-09-19T22:28:38;20.70;66.00
19567;DHT22;9930;49.240;8.548;2023-09-19T22:31:35;20.50;66.20
19567;DHT22;9930;49.240;8.548;2023-09-19T22:42:41;20.60;66.40
19567;DHT22;9930;49.240;8.548;2023-09-19T22:45:44;20.50;66.40
19567;DHT22;9930;49.240;8.548;2023-09-19T22:48:19;20.60;66.70
19567;DHT22;9930;49.240;8.548;2023-09-19T22:54:39;20.60;67.00
19567;DHT22;9930;49.240;8.548;2023-09-19T22:57:35;20.50;66.70
19567;DHT22;9930;49.240;8.548;2023-09-19T23:00:38;20.50;66.70
19567;DHT22;9930;49.240;8.548;2023-09-19T23:03:51;20.50;66.90
19567;DHT22;9930;49.240;8.548;2023-09-19T23:10:00;20.50;66.40
19567;DHT22;9930;49.240;8.548;2023-09-19T23:17:09;20.40;67.00
19567;DHT22;9930;49.240;8.548;2023-09-19T23:20:15;20.30;66.40
19567;DHT22;9930;49.240;8.548;2023-09-19T23:30:55;20.20;67.10
19567;DHT22;9930;49.240;8.548;2023-09-19T23:45:09;20.00;67.30
19567;DHT22;9930;49.240;8.548;2023-09-19T23:52:41;19.90;67.50
